sensor_id;sensor_type;location;lat;lon;timestamp;P1;durP1;ratioP1;P2;durP2;ratioP2
12556;SDS011;6344;49.932;8.308;2023-03-18T00:01:05;29.13;;;25.97;;
12556;SDS011;6344;49.932;8.308;2023-03-18T00:03:34;18.20;;;16.20;;
12556;SDS011;6344;49.932;8.308;2023-03-18T00:06:03;22.63;;;20.50;;
12556;SDS011;6344;49.932;8.308;2023-03-18T00:08:31;15.73;;;14.53;;
12556;SDS011;6344;49.932;8.308;2023-03-18T00:10:57;18.53;;;16.63;;
12556;SDS011;6344;49.932;8.308;2023-03-18T00:13:25;15.47;;;13.97;;
12556;SDS011;6344;49.932;8.308;2023-03-18T00:15:52;15.23;;;13.73;;
12556;SDS011;6344;49.932;8.308;2023-03-18T00:18:19;17.13;;;15.40;;
12556;SDS011;6344;49.932;8.308;2023-03-18T00:20:47;18.97;;;17.37;;
12556;SDS011;6344;49.932;8.308;2023-03-18T00:23:13;19.00;;;17.13;;
12556;SDS011;6344;49.932;8.308;2023-03-18T00:25:40;17.07;;;15.57;;
12556;SDS011;6344;49.932;8.308;2023-03-18T00:28:08;19.57;;;17.47;;
12556;SDS011;6344;49.932;8.308;2023-03-18T00:30:36;19.43;;;17.83;;
12556;SDS011;6344;49.932;8.308;2023-03-18T00:33:03;19.67;;;17.87;;
12556;SDS011;6344;49.932;8.308;2023-03-18T00:35:31;18.40;;;16.77;;
12556;SDS011;6344;49.932;8.308;2023-03-18T00:37:59;18.83;;;17.03;;
12556;SDS011;6344;49.932;8.308;2023-03-18T00:40:28;18.00;;;16.23;;
12556;SDS011;6344;49.932;8.308;2023-03-18T00:43:07;19.67;;;17.77;;
12556;SDS011;6344;49.932;8.308;2023-03-18T00:45:35;19.10;;;17.23;;
12556;SDS011;6344;49.932;8.308;2023-03-18T00:48:03;20.80;;;18.70;;
12556;SDS011;6344;49.932;8.308;2023-03-18T00:50:31;17.10;;;15.40;;
12556;SDS011;6344;49.932;8.308;2023-03-18T00:52:59;14.20;;;13.00;;
12556;SDS011;6344;49.932;8.308;2023-03-18T00:55:26;17.60;;;16.10;;
12556;SDS011;6344;49.932;8.308;2023-03-18T00:57:53;14.00;;;12.70;;
12556;SDS011;6344;49.932;8.308;2023-03-18T01:00:21;15.07;;;13.57;;
12556;SDS011;6344;49.932;8.308;2023-03-18T01:02:50;14.33;;;13.10;;
12556;SDS011;6344;49.932;8.308;2023-03-18T01:05:17;12.90;;;11.70;;
12556;SDS011;6344;49.932;8.308;2023-03-18T01:07:44;15.70;;;14.17;;
12556;SDS011;6344;49.932;8.308;2023-03-18T01:10:13;15.07;;;13.57;;
12556;SDS011;6344;49.932;8.308;2023-03-18T01:12:40;14.83;;;13.53;;
12556;SDS011;6344;49.932;8.308;2023-03-18T01:15:08;14.10;;;12.70;;
12556;SDS011;6344;49.932;8.308;2023-03-18T01:17:37;14.83;;;13.07;;
12556;SDS011;6344;49.932;8.308;2023-03-18T01:20:04;13.80;;;12.50;;
12556;SDS011;6344;49.932;8.308;2023-03-18T01:22:31;13.50;;;12.00;;
12556;SDS011;6344;49.932;8.308;2023-03-18T01:24:58;14.07;;;12.70;;
12556;SDS011;6344;49.932;8.308;2023-03-18T01:27:26;12.93;;;11.60;;
12556;SDS011;6344;49.932;8.308;2023-03-18T01:29:53;13.50;;;11.93;;
12556;SDS011;6344;49.932;8.308;2023-03-18T01:32:20;11.77;;;10.87;;
12556;SDS011;6344;49.932;8.308;2023-03-18T01:34:48;12.33;;;11.23;;
12556;SDS011;6344;49.932;8.308;2023-03-18T01:37:14;11.33;;;10.33;;
12556;SDS011;6344;49.932;8.308;2023-03-18T01:39:41;13.60;;;12.40;;
12556;SDS011;6344;49.932;8.308;2023-03-18T01:42:08;12.80;;;11.40;;
12556;SDS011;6344;49.932;8.308;2023-03-18T01:44:37;12.90;;;11.73;;
12556;SDS011;6344;49.932;8.308;2023-03-18T01:47:03;14.07;;;12.57;;
12556;SDS011;6344;49.932;8.308;2023-03-18T01:49:33;13.27;;;11.73;;
12556;SDS011;6344;49.932;8.308;2023-03-18T01:52:02;14.30;;;12.80;;
12556;SDS011;6344;49.932;8.308;2023-03-18T01:54:33;13.63;;;12.33;;
12556;SDS011;6344;49.932;8.308;2023-03-18T01:57:02;13.60;;;12.20;;
12556;SDS011;6344;49.932;8.308;2023-03-18T01:59:30;14.60;;;13.30;;
12556;SDS011;6344;49.932;8.308;2023-03-18T02:02:04;15.63;;;14.23;;
12556;SDS011;6344;49.932;8.308;2023-03-18T02:04:35;16.90;;;15.37;;
12556;SDS011;6344;49.932;8.308;2023-03-18T02:07:05;16.93;;;15.40;;
12556;SDS011;6344;49.932;8.308;2023-03-18T02:09:32;15.77;;;14.33;;
12556;SDS011;6344;49.932;8.308;2023-03-18T02:11:59;16.43;;;14.93;;
12556;SDS011;6344;49.932;8.308;2023-03-18T02:14:27;15.73;;;14.13;;
12556;SDS011;6344;49.932;8.308;2023-03-18T02:16:56;15.30;;;13.83;;
12556;SDS011;6344;49.932;8.308;2023-03-18T02:19:32;14.13;;;12.80;;
12556;SDS011;6344;49.932;8.308;2023-03-18T02:22:13;14.30;;;13.10;;
12556;SDS011;6344;49.932;8.308;2023-03-18T02:24:48;15.63;;;14.23;;
12556;SDS011;6344;49.932;8.308;2023-03-18T02:27:21;15.10;;;13.60;;
12556;SDS011;6344;49.932;8.308;2023-03-18T02:29:51;15.40;;;14.00;;
12556;SDS011;6344;49.932;8.308;2023-03-18T02:32:23;16.07;;;14.57;;
12556;SDS011;6344;49.932;8.308;2023-03-18T02:34:51;15.70;;;14.33;;
12556;SDS011;6344;49.932;8.308;2023-03-18T02:37:18;16.23;;;14.80;;
12556;SDS011;6344;49.932;8.308;2023-03-18T02:39:45;17.93;;;15.73;;
12556;SDS011;6344;49.932;8.308;2023-03-18T02:42:12;16.73;;;15.17;;
12556;SDS011;6344;49.932;8.308;2023-03-18T02:44:42;18.20;;;16.40;;
12556;SDS011;6344;49.932;8.308;2023-03-18T02:47:13;24.70;;;17.63;;
12556;SDS011;6344;49.932;8.308;2023-03-18T02:49:43;19.60;;;17.67;;
12556;SDS011;6344;49.932;8.308;2023-03-18T02:52:10;17.87;;;16.27;;
12556;SDS011;6344;49.932;8.308;2023-03-18T02:54:37;17.77;;;16.07;;
12556;SDS011;6344;49.932;8.308;2023-03-18T02:57:03;20.03;;;18.23;;
12556;SDS011;6344;49.932;8.308;2023-03-18T02:59:30;20.83;;;17.27;;
12556;SDS011;6344;49.932;8.308;2023-03-18T03:01:58;19.10;;;17.10;;
12556;SDS011;6344;49.932;8.308;2023-03-18T03:04:26;19.83;;;17.93;;
12556;SDS011;6344;49.932;8.308;2023-03-18T03:06:53;19.60;;;17.53;;
12556;SDS011;6344;49.932;8.308;2023-03-18T03:09:21;21.20;;;18.80;;
12556;SDS011;6344;49.932;8.308;2023-03-18T03:11:48;20.10;;;17.83;;
12556;SDS011;6344;49.932;8.308;2023-03-18T03:14:15;21.30;;;19.00;;
12556;SDS011;6344;49.932;8.308;2023-03-18T03:16:42;20.17;;;18.37;;
12556;SDS011;6344;49.932;8.308;2023-03-18T03:19:10;19.63;;;18.03;;
12556;SDS011;6344;49.932;8.308;2023-03-18T03:21:37;20.43;;;18.33;;
12556;SDS011;6344;49.932;8.308;2023-03-18T03:24:04;20.70;;;18.60;;
12556;SDS011;6344;49.932;8.308;2023-03-18T03:26:32;19.90;;;17.83;;
12556;SDS011;6344;49.932;8.308;2023-03-18T03:29:00;20.17;;;18.27;;
12556;SDS011;6344;49.932;8.308;2023-03-18T03:31:28;21.27;;;19.00;;
12556;SDS011;6344;49.932;8.308;2023-03-18T03:33:55;20.73;;;18.50;;
12556;SDS011;6344;49.932;8.308;2023-03-18T03:36:23;21.83;;;19.87;;
12556;SDS011;6344;49.932;8.308;2023-03-18T03:38:50;22.37;;;20.03;;
12556;SDS011;6344;49.932;8.308;2023-03-18T03:41:17;22.77;;;20.23;;
12556;SDS011;6344;49.932;8.308;2023-03-18T03:43:44;24.93;;;22.43;;
12556;SDS011;6344;49.932;8.308;2023-03-18T03:46:10;23.67;;;21.40;;
12556;SDS011;6344;49.932;8.308;2023-03-18T03:48:37;23.20;;;20.90;;
12556;SDS011;6344;49.932;8.308;2023-03-18T03:51:04;22.07;;;19.87;;
12556;SDS011;6344;49.932;8.308;2023-03-18T03:53:33;21.27;;;19.13;;
12556;SDS011;6344;49.932;8.308;2023-03-18T03:56:00;24.30;;;21.07;;
12556;SDS011;6344;49.932;8.308;2023-03-18T03:58:27;22.53;;;20.63;;
12556;SDS011;6344;49.932;8.308;2023-03-18T04:00:54;22.20;;;20.30;;
12556;SDS011;6344;49.932;8.308;2023-03-18T04:03:21;25.07;;;22.77;;
12556;SDS011;6344;49.932;8.308;2023-03-18T04:05:47;23.17;;;20.97;;
12556;SDS011;6344;49.932;8.308;2023-03-18T04:08:14;21.53;;;19.50;;
12556;SDS011;6344;49.932;8.308;2023-03-18T04:10:42;21.90;;;20.00;;
12556;SDS011;6344;49.932;8.308;2023-03-18T04:13:09;21.73;;;19.63;;
12556;SDS011;6344;49.932;8.308;2023-03-18T04:15:36;21.63;;;19.47;;
12556;SDS011;6344;49.932;8.308;2023-03-18T04:18:02;23.57;;;21.40;;
12556;SDS011;6344;49.932;8.308;2023-03-18T04:20:31;22.53;;;20.40;;
12556;SDS011;6344;49.932;8.308;2023-03-18T04:22:59;23.10;;;20.93;;
12556;SDS011;6344;49.932;8.308;2023-03-18T04:25:26;21.60;;;19.60;;
12556;SDS011;6344;49.932;8.308;2023-03-18T04:27:54;21.90;;;19.77;;
12556;SDS011;6344;49.932;8.308;2023-03-18T04:30:21;26.17;;;21.73;;
12556;SDS011;6344;49.932;8.308;2023-03-18T04:32:49;26.20;;;23.00;;
12556;SDS011;6344;49.932;8.308;2023-03-18T04:35:16;24.13;;;21.77;;
12556;SDS011;6344;49.932;8.308;2023-03-18T04:37:45;25.47;;;22.37;;
12556;SDS011;6344;49.932;8.308;2023-03-18T04:40:12;23.70;;;21.50;;
12556;SDS011;6344;49.932;8.308;2023-03-18T04:42:39;25.07;;;22.63;;
12556;SDS011;6344;49.932;8.308;2023-03-18T04:45:08;26.80;;;23.97;;
12556;SDS011;6344;49.932;8.308;2023-03-18T04:47:35;23.43;;;21.30;;
12556;SDS011;6344;49.932;8.308;2023-03-18T04:50:02;25.50;;;22.80;;
12556;SDS011;6344;49.932;8.308;2023-03-18T04:52:29;23.80;;;21.60;;
12556;SDS011;6344;49.932;8.308;2023-03-18T04:54:56;25.13;;;22.83;;
12556;SDS011;6344;49.932;8.308;2023-03-18T04:57:23;22.30;;;20.17;;
12556;SDS011;6344;49.932;8.308;2023-03-18T04:59:50;19.13;;;17.33;;
12556;SDS011;6344;49.932;8.308;2023-03-18T05:02:17;17.40;;;15.90;;
12556;SDS011;6344;49.932;8.308;2023-03-18T05:04:44;18.43;;;16.53;;
12556;SDS011;6344;49.932;8.308;2023-03-18T05:07:11;18.30;;;16.60;;
12556;SDS011;6344;49.932;8.308;2023-03-18T05:09:39;18.47;;;16.47;;
12556;SDS011;6344;49.932;8.308;2023-03-18T05:12:09;20.93;;;19.03;;
12556;SDS011;6344;49.932;8.308;2023-03-18T05:14:38;22.07;;;19.97;;
12556;SDS011;6344;49.932;8.308;2023-03-18T05:17:05;20.33;;;18.43;;
12556;SDS011;6344;49.932;8.308;2023-03-18T05:19:34;23.93;;;21.73;;
12556;SDS011;6344;49.932;8.308;2023-03-18T05:22:00;21.87;;;19.20;;
12556;SDS011;6344;49.932;8.308;2023-03-18T05:24:27;21.00;;;18.90;;
12556;SDS011;6344;49.932;8.308;2023-03-18T05:26:54;24.00;;;21.33;;
12556;SDS011;6344;49.932;8.308;2023-03-18T05:29:21;22.40;;;19.80;;
12556;SDS011;6344;49.932;8.308;2023-03-18T05:31:48;22.93;;;20.80;;
12556;SDS011;6344;49.932;8.308;2023-03-18T05:34:15;21.53;;;19.43;;
12556;SDS011;6344;49.932;8.308;2023-03-18T05:36:43;22.33;;;20.23;;
12556;SDS011;6344;49.932;8.308;2023-03-18T05:39:09;22.97;;;20.73;;
12556;SDS011;6344;49.932;8.308;2023-03-18T05:41:36;23.30;;;21.00;;
12556;SDS011;6344;49.932;8.308;2023-03-18T05:44:03;35.73;;;23.37;;
12556;SDS011;6344;49.932;8.308;2023-03-18T05:46:31;25.23;;;21.20;;
12556;SDS011;6344;49.932;8.308;2023-03-18T05:48:58;25.37;;;22.43;;
12556;SDS011;6344;49.932;8.308;2023-03-18T05:51:25;28.30;;;25.40;;
12556;SDS011;6344;49.932;8.308;2023-03-18T05:53:53;36.23;;;30.70;;
12556;SDS011;6344;49.932;8.308;2023-03-18T05:56:20;37.00;;;33.00;;
12556;SDS011;6344;49.932;8.308;2023-03-18T05:58:48;35.10;;;31.50;;
12556;SDS011;6344;49.932;8.308;2023-03-18T06:01:15;34.33;;;30.90;;
12556;SDS011;6344;49.932;8.308;2023-03-18T06:03:41;32.53;;;29.10;;
12556;SDS011;6344;49.932;8.308;2023-03-18T06:06:08;32.47;;;29.17;;
12556;SDS011;6344;49.932;8.308;2023-03-18T06:08:35;34.93;;;31.13;;
12556;SDS011;6344;49.932;8.308;2023-03-18T06:11:04;34.10;;;30.40;;
12556;SDS011;6344;49.932;8.308;2023-03-18T06:13:30;33.23;;;29.63;;
12556;SDS011;6344;49.932;8.308;2023-03-18T06:15:57;30.47;;;27.47;;
12556;SDS011;6344;49.932;8.308;2023-03-18T06:18:25;32.47;;;29.30;;
12556;SDS011;6344;49.932;8.308;2023-03-18T06:20:52;30.77;;;27.77;;
12556;SDS011;6344;49.932;8.308;2023-03-18T06:23:20;29.30;;;26.47;;
12556;SDS011;6344;49.932;8.308;2023-03-18T06:25:47;30.63;;;27.33;;
12556;SDS011;6344;49.932;8.308;2023-03-18T06:28:15;32.93;;;29.37;;
12556;SDS011;6344;49.932;8.308;2023-03-18T06:30:42;31.63;;;28.43;;
12556;SDS011;6344;49.932;8.308;2023-03-18T06:33:09;30.60;;;27.70;;
12556;SDS011;6344;49.932;8.308;2023-03-18T06:35:36;32.40;;;29.13;;
12556;SDS011;6344;49.932;8.308;2023-03-18T06:38:03;32.50;;;29.23;;
12556;SDS011;6344;49.932;8.308;2023-03-18T06:40:30;34.77;;;31.17;;
12556;SDS011;6344;49.932;8.308;2023-03-18T06:42:56;35.80;;;32.00;;
12556;SDS011;6344;49.932;8.308;2023-03-18T06:45:24;34.53;;;29.87;;
12556;SDS011;6344;49.932;8.308;2023-03-18T06:47:52;33.83;;;30.40;;
12556;SDS011;6344;49.932;8.308;2023-03-18T06:50:19;37.70;;;32.50;;
12556;SDS011;6344;49.932;8.308;2023-03-18T06:52:46;37.80;;;31.37;;
12556;SDS011;6344;49.932;8.308;2023-03-18T06:55:13;34.87;;;31.13;;
12556;SDS011;6344;49.932;8.308;2023-03-18T06:57:40;38.10;;;32.97;;
12556;SDS011;6344;49.932;8.308;2023-03-18T07:00:07;36.20;;;32.50;;
12556;SDS011;6344;49.932;8.308;2023-03-18T07:02:36;35.37;;;31.80;;
12556;SDS011;6344;49.932;8.308;2023-03-18T07:05:03;35.33;;;31.67;;
12556;SDS011;6344;49.932;8.308;2023-03-18T07:07:31;37.63;;;33.70;;
12556;SDS011;6344;49.932;8.308;2023-03-18T07:09:58;36.73;;;32.93;;
12556;SDS011;6344;49.932;8.308;2023-03-18T07:12:26;32.33;;;29.23;;
12556;SDS011;6344;49.932;8.308;2023-03-18T07:14:52;32.30;;;29.07;;
12556;SDS011;6344;49.932;8.308;2023-03-18T07:17:19;30.03;;;26.93;;
12556;SDS011;6344;49.932;8.308;2023-03-18T07:19:47;29.13;;;26.50;;
12556;SDS011;6344;49.932;8.308;2023-03-18T07:22:14;25.87;;;23.57;;
12556;SDS011;6344;49.932;8.308;2023-03-18T07:24:41;24.10;;;21.90;;
12556;SDS011;6344;49.932;8.308;2023-03-18T07:27:08;22.07;;;20.20;;
12556;SDS011;6344;49.932;8.308;2023-03-18T07:29:35;20.30;;;18.70;;
12556;SDS011;6344;49.932;8.308;2023-03-18T07:32:01;17.50;;;16.00;;
12556;SDS011;6344;49.932;8.308;2023-03-18T07:34:28;16.13;;;14.87;;
12556;SDS011;6344;49.932;8.308;2023-03-18T07:36:56;13.80;;;12.50;;
12556;SDS011;6344;49.932;8.308;2023-03-18T07:39:23;13.70;;;12.60;;
12556;SDS011;6344;49.932;8.308;2023-03-18T07:41:50;15.67;;;14.30;;
12556;SDS011;6344;49.932;8.308;2023-03-18T07:44:17;15.87;;;14.50;;
12556;SDS011;6344;49.932;8.308;2023-03-18T07:46:43;15.77;;;14.57;;
12556;SDS011;6344;49.932;8.308;2023-03-18T07:49:10;15.47;;;14.30;;
12556;SDS011;6344;49.932;8.308;2023-03-18T07:51:37;17.00;;;15.27;;
12556;SDS011;6344;49.932;8.308;2023-03-18T07:54:04;15.57;;;14.10;;
12556;SDS011;6344;49.932;8.308;2023-03-18T07:56:31;14.70;;;13.30;;
12556;SDS011;6344;49.932;8.308;2023-03-18T07:58:58;15.27;;;13.23;;
12556;SDS011;6344;49.932;8.308;2023-03-18T08:01:25;13.00;;;11.80;;
12556;SDS011;6344;49.932;8.308;2023-03-18T08:03:52;12.27;;;11.30;;
12556;SDS011;6344;49.932;8.308;2023-03-18T08:06:19;10.80;;;9.90;;
12556;SDS011;6344;49.932;8.308;2023-03-18T08:08:46;8.73;;;8.03;;
12556;SDS011;6344;49.932;8.308;2023-03-18T08:11:14;13.10;;;11.97;;
12556;SDS011;6344;49.932;8.308;2023-03-18T08:13:41;14.37;;;13.20;;
12556;SDS011;6344;49.932;8.308;2023-03-18T08:16:08;14.47;;;13.17;;
12556;SDS011;6344;49.932;8.308;2023-03-18T08:18:36;14.37;;;13.17;;
12556;SDS011;6344;49.932;8.308;2023-03-18T08:21:02;14.23;;;12.83;;
12556;SDS011;6344;49.932;8.308;2023-03-18T08:23:30;13.07;;;11.97;;
12556;SDS011;6344;49.932;8.308;2023-03-18T08:25:57;12.53;;;11.53;;
12556;SDS011;6344;49.932;8.308;2023-03-18T08:28:25;12.33;;;11.10;;
12556;SDS011;6344;49.932;8.308;2023-03-18T08:30:52;10.50;;;9.60;;
12556;SDS011;6344;49.932;8.308;2023-03-18T08:33:20;6.50;;;5.90;;
12556;SDS011;6344;49.932;8.308;2023-03-18T08:35:47;5.03;;;4.63;;
12556;SDS011;6344;49.932;8.308;2023-03-18T08:38:14;6.10;;;5.60;;
12556;SDS011;6344;49.932;8.308;2023-03-18T08:40:41;5.63;;;5.10;;
12556;SDS011;6344;49.932;8.308;2023-03-18T08:43:08;5.30;;;4.87;;
12556;SDS011;6344;49.932;8.308;2023-03-18T08:45:36;5.77;;;5.37;;
12556;SDS011;6344;49.932;8.308;2023-03-18T08:48:03;5.67;;;4.87;;
12556;SDS011;6344;49.932;8.308;2023-03-18T08:50:30;5.47;;;5.10;;
12556;SDS011;6344;49.932;8.308;2023-03-18T08:52:57;4.87;;;4.50;;
12556;SDS011;6344;49.932;8.308;2023-03-18T08:55:27;5.73;;;5.13;;
12556;SDS011;6344;49.932;8.308;2023-03-18T08:57:56;6.60;;;5.37;;
12556;SDS011;6344;49.932;8.308;2023-03-18T09:00:23;5.20;;;4.80;;
12556;SDS011;6344;49.932;8.308;2023-03-18T09:02:51;4.10;;;3.80;;
12556;SDS011;6344;49.932;8.308;2023-03-18T09:05:18;4.40;;;4.00;;
12556;SDS011;6344;49.932;8.308;2023-03-18T09:07:45;4.33;;;4.00;;
12556;SDS011;6344;49.932;8.308;2023-03-18T09:10:13;4.20;;;3.90;;
12556;SDS011;6344;49.932;8.308;2023-03-18T09:12:41;4.63;;;4.23;;
12556;SDS011;6344;49.932;8.308;2023-03-18T09:15:09;4.33;;;3.93;;
12556;SDS011;6344;49.932;8.308;2023-03-18T09:17:37;4.77;;;3.60;;
12556;SDS011;6344;49.932;8.308;2023-03-18T09:20:07;5.97;;;4.30;;
12556;SDS011;6344;49.932;8.308;2023-03-18T09:22:35;4.40;;;4.00;;
12556;SDS011;6344;49.932;8.308;2023-03-18T09:25:02;4.43;;;4.03;;
12556;SDS011;6344;49.932;8.308;2023-03-18T09:27:29;4.70;;;4.30;;
12556;SDS011;6344;49.932;8.308;2023-03-18T09:29:56;5.90;;;4.53;;
12556;SDS011;6344;49.932;8.308;2023-03-18T09:32:23;5.67;;;4.30;;
12556;SDS011;6344;49.932;8.308;2023-03-18T09:34:50;5.60;;;4.07;;
12556;SDS011;6344;49.932;8.308;2023-03-18T09:37:18;5.23;;;4.50;;
12556;SDS011;6344;49.932;8.308;2023-03-18T09:39:45;5.10;;;4.60;;
12556;SDS011;6344;49.932;8.308;2023-03-18T09:42:16;3.93;;;3.73;;
12556;SDS011;6344;49.932;8.308;2023-03-18T09:44:54;4.60;;;3.30;;
12556;SDS011;6344;49.932;8.308;2023-03-18T09:47:28;3.90;;;3.60;;
12556;SDS011;6344;49.932;8.308;2023-03-18T09:50:13;4.80;;;4.00;;
12556;SDS011;6344;49.932;8.308;2023-03-18T09:52:57;4.67;;;3.80;;
12556;SDS011;6344;49.932;8.308;2023-03-18T09:55:36;3.67;;;3.47;;
12556;SDS011;6344;49.932;8.308;2023-03-18T09:58:13;3.57;;;3.30;;
12556;SDS011;6344;49.932;8.308;2023-03-18T10:00:45;3.93;;;3.63;;
12556;SDS011;6344;49.932;8.308;2023-03-18T10:03:13;4.27;;;3.70;;
12556;SDS011;6344;49.932;8.308;2023-03-18T10:05:46;3.33;;;3.13;;
12556;SDS011;6344;49.932;8.308;2023-03-18T10:08:18;4.00;;;3.60;;
12556;SDS011;6344;49.932;8.308;2023-03-18T10:10:49;4.40;;;3.30;;
12556;SDS011;6344;49.932;8.308;2023-03-18T10:13:16;4.37;;;3.33;;
12556;SDS011;6344;49.932;8.308;2023-03-18T10:15:48;3.97;;;3.60;;
12556;SDS011;6344;49.932;8.308;2023-03-18T10:18:19;4.20;;;3.60;;
12556;SDS011;6344;49.932;8.308;2023-03-18T10:20:52;5.47;;;3.57;;
12556;SDS011;6344;49.932;8.308;2023-03-18T10:23:30;3.73;;;3.40;;
12556;SDS011;6344;49.932;8.308;2023-03-18T10:26:09;3.80;;;3.50;;
12556;SDS011;6344;49.932;8.308;2023-03-18T10:28:44;4.07;;;3.67;;
12556;SDS011;6344;49.932;8.308;2023-03-18T10:31:40;4.57;;;3.70;;
12556;SDS011;6344;49.932;8.308;2023-03-18T10:34:15;5.43;;;3.80;;
12556;SDS011;6344;49.932;8.308;2023-03-18T10:36:48;3.73;;;3.40;;
12556;SDS011;6344;49.932;8.308;2023-03-18T10:39:23;3.80;;;3.50;;
12556;SDS011;6344;49.932;8.308;2023-03-18T10:41:51;4.10;;;3.73;;
12556;SDS011;6344;49.932;8.308;2023-03-18T10:44:21;4.63;;;4.23;;
12556;SDS011;6344;49.932;8.308;2023-03-18T10:46:51;4.00;;;3.70;;
12556;SDS011;6344;49.932;8.308;2023-03-18T10:49:23;4.07;;;3.77;;
12556;SDS011;6344;49.932;8.308;2023-03-18T10:51:53;4.27;;;3.87;;
12556;SDS011;6344;49.932;8.308;2023-03-18T10:54:26;4.30;;;3.90;;
12556;SDS011;6344;49.932;8.308;2023-03-18T10:56:56;3.93;;;3.53;;
12556;SDS011;6344;49.932;8.308;2023-03-18T10:59:23;4.00;;;3.60;;
12556;SDS011;6344;49.932;8.308;2023-03-18T11:01:52;4.37;;;3.97;;
12556;SDS011;6344;49.932;8.308;2023-03-18T11:04:23;4.53;;;3.67;;
12556;SDS011;6344;49.932;8.308;2023-03-18T11:06:54;5.23;;;4.50;;
12556;SDS011;6344;49.932;8.308;2023-03-18T11:09:29;5.50;;;5.00;;
12556;SDS011;6344;49.932;8.308;2023-03-18T11:12:01;4.40;;;3.90;;
12556;SDS011;6344;49.932;8.308;2023-03-18T11:14:29;4.53;;;4.17;;
12556;SDS011;6344;49.932;8.308;2023-03-18T11:16:57;3.87;;;3.57;;
12556;SDS011;6344;49.932;8.308;2023-03-18T11:19:27;3.67;;;3.40;;
12556;SDS011;6344;49.932;8.308;2023-03-18T11:22:01;4.63;;;3.50;;
12556;SDS011;6344;49.932;8.308;2023-03-18T11:24:32;4.07;;;3.60;;
12556;SDS011;6344;49.932;8.308;2023-03-18T11:27:21;4.10;;;3.70;;
12556;SDS011;6344;49.932;8.308;2023-03-18T11:29:53;3.83;;;3.10;;
12556;SDS011;6344;49.932;8.308;2023-03-18T11:32:23;3.60;;;3.30;;
12556;SDS011;6344;49.932;8.308;2023-03-18T11:34:53;5.00;;;4.30;;
12556;SDS011;6344;49.932;8.308;2023-03-18T11:37:24;5.07;;;4.10;;
12556;SDS011;6344;49.932;8.308;2023-03-18T11:39:53;4.17;;;3.70;;
12556;SDS011;6344;49.932;8.308;2023-03-18T11:42:42;4.07;;;3.77;;
12556;SDS011;6344;49.932;8.308;2023-03-18T11:45:17;3.70;;;3.20;;
12556;SDS011;6344;49.932;8.308;2023-03-18T11:48:01;4.73;;;4.20;;
12556;SDS011;6344;49.932;8.308;2023-03-18T11:50:33;5.93;;;4.40;;
12556;SDS011;6344;49.932;8.308;2023-03-18T11:53:07;4.17;;;3.80;;
12556;SDS011;6344;49.932;8.308;2023-03-18T11:55:40;4.57;;;4.13;;
12556;SDS011;6344;49.932;8.308;2023-03-18T11:58:24;5.60;;;3.40;;
12556;SDS011;6344;49.932;8.308;2023-03-18T12:01:08;4.37;;;4.03;;
12556;SDS011;6344;49.932;8.308;2023-03-18T12:03:50;5.23;;;4.80;;
12556;SDS011;6344;49.932;8.308;2023-03-18T12:06:48;4.00;;;3.70;;
12556;SDS011;6344;49.932;8.308;2023-03-18T12:09:26;4.17;;;3.77;;
12556;SDS011;6344;49.932;8.308;2023-03-18T12:12:02;4.07;;;3.70;;
12556;SDS011;6344;49.932;8.308;2023-03-18T12:14:39;4.13;;;3.67;;
12556;SDS011;6344;49.932;8.308;2023-03-18T12:17:14;4.83;;;3.80;;
12556;SDS011;6344;49.932;8.308;2023-03-18T12:22:49;4.10;;;3.80;;
12556;SDS011;6344;49.932;8.308;2023-03-18T12:25:30;5.33;;;4.93;;
12556;SDS011;6344;49.932;8.308;2023-03-18T12:28:13;4.20;;;3.90;;
12556;SDS011;6344;49.932;8.308;2023-03-18T12:33:51;4.97;;;4.43;;
12556;SDS011;6344;49.932;8.308;2023-03-18T12:36:22;4.33;;;4.00;;
12556;SDS011;6344;49.932;8.308;2023-03-18T12:42:10;6.87;;;3.60;;
12556;SDS011;6344;49.932;8.308;2023-03-18T12:44:46;4.30;;;4.00;;
12556;SDS011;6344;49.932;8.308;2023-03-18T12:47:19;4.90;;;4.43;;
12556;SDS011;6344;49.932;8.308;2023-03-18T12:49:49;4.87;;;4.47;;
12556;SDS011;6344;49.932;8.308;2023-03-18T12:52:23;7.17;;;4.80;;
12556;SDS011;6344;49.932;8.308;2023-03-18T12:54:56;7.00;;;5.23;;
12556;SDS011;6344;49.932;8.308;2023-03-18T12:57:31;6.27;;;4.93;;
12556;SDS011;6344;49.932;8.308;2023-03-18T13:00:06;4.77;;;4.27;;
12556;SDS011;6344;49.932;8.308;2023-03-18T13:02:48;7.57;;;5.30;;
12556;SDS011;6344;49.932;8.308;2023-03-18T13:05:29;4.80;;;4.40;;
12556;SDS011;6344;49.932;8.308;2023-03-18T13:10:53;4.57;;;4.27;;
12556;SDS011;6344;49.932;8.308;2023-03-18T13:13:28;4.13;;;3.83;;
12556;SDS011;6344;49.932;8.308;2023-03-18T13:15:59;4.27;;;3.87;;
12556;SDS011;6344;49.932;8.308;2023-03-18T13:18:30;4.43;;;3.87;;
12556;SDS011;6344;49.932;8.308;2023-03-18T13:21:03;4.33;;;3.93;;
12556;SDS011;6344;49.932;8.308;2023-03-18T13:23:37;3.60;;;3.30;;
12556;SDS011;6344;49.932;8.308;2023-03-18T13:26:21;9.00;;;3.53;;
12556;SDS011;6344;49.932;8.308;2023-03-18T13:29:01;3.50;;;3.20;;
12556;SDS011;6344;49.932;8.308;2023-03-18T13:31:41;4.37;;;4.07;;
12556;SDS011;6344;49.932;8.308;2023-03-18T13:34:22;4.20;;;3.77;;
12556;SDS011;6344;49.932;8.308;2023-03-18T13:37:11;5.77;;;4.07;;
12556;SDS011;6344;49.932;8.308;2023-03-18T13:39:58;5.30;;;4.80;;
12556;SDS011;6344;49.932;8.308;2023-03-18T13:42:37;4.93;;;4.40;;
12556;SDS011;6344;49.932;8.308;2023-03-18T13:45:06;5.27;;;4.77;;
12556;SDS011;6344;49.932;8.308;2023-03-18T13:47:53;4.47;;;3.70;;
12556;SDS011;6344;49.932;8.308;2023-03-18T13:50:25;6.33;;;4.07;;
12556;SDS011;6344;49.932;8.308;2023-03-18T13:52:57;3.47;;;3.10;;
12556;SDS011;6344;49.932;8.308;2023-03-18T13:55:26;6.67;;;4.47;;
12556;SDS011;6344;49.932;8.308;2023-03-18T13:57:57;4.03;;;3.60;;
12556;SDS011;6344;49.932;8.308;2023-03-18T14:00:42;4.60;;;3.70;;
12556;SDS011;6344;49.932;8.308;2023-03-18T14:05:51;4.63;;;4.23;;
12556;SDS011;6344;49.932;8.308;2023-03-18T14:08:48;4.43;;;3.67;;
12556;SDS011;6344;49.932;8.308;2023-03-18T14:14:37;5.30;;;3.43;;
12556;SDS011;6344;49.932;8.308;2023-03-18T14:17:13;6.63;;;4.10;;
12556;SDS011;6344;49.932;8.308;2023-03-18T14:19:45;3.67;;;3.37;;
12556;SDS011;6344;49.932;8.308;2023-03-18T14:22:14;4.00;;;3.60;;
12556;SDS011;6344;49.932;8.308;2023-03-18T14:24:58;4.40;;;4.00;;
12556;SDS011;6344;49.932;8.308;2023-03-18T14:27:51;4.43;;;3.90;;
12556;SDS011;6344;49.932;8.308;2023-03-18T14:30:38;4.83;;;3.50;;
12556;SDS011;6344;49.932;8.308;2023-03-18T14:35:58;5.27;;;4.77;;
12556;SDS011;6344;49.932;8.308;2023-03-18T14:38:28;4.33;;;3.87;;
12556;SDS011;6344;49.932;8.308;2023-03-18T14:40:58;4.00;;;3.70;;
12556;SDS011;6344;49.932;8.308;2023-03-18T14:43:31;7.77;;;3.67;;
12556;SDS011;6344;49.932;8.308;2023-03-18T14:46:03;4.97;;;4.00;;
12556;SDS011;6344;49.932;8.308;2023-03-18T14:48:34;6.07;;;4.77;;
12556;SDS011;6344;49.932;8.308;2023-03-18T14:51:02;5.17;;;4.30;;
12556;SDS011;6344;49.932;8.308;2023-03-18T14:53:33;6.00;;;5.40;;
12556;SDS011;6344;49.932;8.308;2023-03-18T14:56:02;5.07;;;4.60;;
12556;SDS011;6344;49.932;8.308;2023-03-18T14:58:30;5.60;;;5.10;;
12556;SDS011;6344;49.932;8.308;2023-03-18T15:01:00;4.30;;;3.93;;
12556;SDS011;6344;49.932;8.308;2023-03-18T15:03:30;4.73;;;4.33;;
12556;SDS011;6344;49.932;8.308;2023-03-18T15:05:58;4.80;;;4.40;;
12556;SDS011;6344;49.932;8.308;2023-03-18T15:08:29;4.80;;;4.40;;
12556;SDS011;6344;49.932;8.308;2023-03-18T15:11:01;6.53;;;6.00;;
12556;SDS011;6344;49.932;8.308;2023-03-18T15:13:29;9.63;;;5.57;;
12556;SDS011;6344;49.932;8.308;2023-03-18T15:15:56;8.53;;;5.37;;
12556;SDS011;6344;49.932;8.308;2023-03-18T15:18:24;5.77;;;5.27;;
12556;SDS011;6344;49.932;8.308;2023-03-18T15:20:53;6.07;;;5.40;;
12556;SDS011;6344;49.932;8.308;2023-03-18T15:23:24;5.10;;;4.70;;